Time;durP1;ratioP1;P1;durP2;ratioP2;P2;SDS_P1;SDS_P2;PMS_P1;PMS_P2;Temp;Humidity;BMP_temperature;BMP_pressure;BME280_temperature;BME280_humidity;BME280_pressure;Samples;Min_cycle;Max_cycle;Signal;HPM_P1;HPM_P2
2021/05/13 00:01:31;;;;;;;7.27;2.70;;;;;;;14.18;55.13;95978.19;5092407;28;20415;-69
2021/05/13 00:03:56;;;;;;;5.00;2.40;;;;;;;14.58;54.22;95978.09;5091311;28;20182;-69
2021/05/13 00:06:22;;;;;;;3.03;2.10;;;;;;;14.55;54.56;95978.50;5091895;28;20289;-69
2021/05/13 00:08:57;;;;;;;5.10;2.67;;;;;;;14.64;54.51;95979.09;5092795;28;20190;-69
2021/05/13 00:11:29;;;;;;;7.27;2.50;;;;;;;14.69;54.52;95974.03;5077258;28;20193;-69
2021/05/13 00:13:55;;;;;;;6.13;2.87;;;;;;;14.65;54.96;95969.34;5090821;28;21124;-69
2021/05/13 00:16:27;;;;;;;5.10;2.67;;;;;;;14.32;56.15;95965.00;5080236;28;20431;-70
2021/05/13 00:18:52;;;;;;;4.27;2.60;;;;;;;13.90;56.81;95966.06;5092700;28;20846;-70
2021/05/13 00:21:18;;;;;;;4.97;2.93;;;;;;;13.89;57.38;95967.06;5082883;28;20463;-69
2021/05/13 00:23:44;;;;;;;4.23;2.80;;;;;;;14.07;57.23;95957.75;5091414;28;20177;-70
2021/05/13 00:26:10;;;;;;;6.10;3.00;;;;;;;14.16;56.88;95956.50;5091014;28;20303;-70
2021/05/13 00:28:35;;;;;;;3.47;2.73;;;;;;;14.24;56.77;95955.47;5086783;28;20204;-69
2021/05/13 00:31:01;;;;;;;5.73;3.23;;;;;;;14.33;56.70;95946.31;5090354;28;20483;-69
2021/05/13 00:33:26;;;;;;;4.30;2.50;;;;;;;14.12;57.50;95939.47;5082651;28;20174;-69
2021/05/13 00:35:52;;;;;;;5.57;3.30;;;;;;;14.27;56.92;95945.31;5084680;28;20209;-70
2021/05/13 00:38:17;;;;;;;9.93;3.20;;;;;;;14.34;56.84;95939.25;5082496;28;20185;-69
2021/05/13 00:40:43;;;;;;;3.83;3.10;;;;;;;14.29;57.09;95942.50;5091311;28;20249;-69
2021/05/13 00:43:09;;;;;;;3.57;2.90;;;;;;;14.38;56.76;95945.69;5091228;28;20177;-69
2021/05/13 00:45:34;;;;;;;6.27;3.47;;;;;;;14.41;56.73;95947.94;5082290;28;20554;-68
2021/05/13 00:48:05;;;;;;;3.80;3.07;;;;;;;14.38;56.76;95946.53;5091517;28;20174;-69
2021/05/13 00:50:32;;;;;;;4.37;2.80;;;;;;;14.02;58.05;95949.63;5090869;28;20288;-68
2021/05/13 00:53:01;;;;;;;4.20;3.80;;;;;;;14.16;57.87;95948.59;5091364;28;20427;-70
2021/05/13 00:55:26;;;;;;;7.30;3.47;;;;;;;14.12;57.99;95947.38;5091214;28;20412;-69
2021/05/13 00:57:53;;;;;;;7.20;3.70;;;;;;;14.12;58.09;95942.13;5090999;28;20870;-69
2021/05/13 01:02:55;;;;;;;7.63;4.00;;;;;;;14.28;57.89;95951.44;5088480;28;20422;-69
2021/05/13 01:05:22;;;;;;;4.77;3.03;;;;;;;14.30;57.61;95954.66;5091215;28;20451;-68
2021/05/13 01:07:48;;;;;;;4.67;3.20;;;;;;;14.34;57.40;95955.84;5090315;28;20459;-69
2021/05/13 01:10:16;;;;;;;3.80;3.30;;;;;;;14.37;57.54;95952.00;5090144;28;20505;-69
2021/05/13 01:12:42;;;;;;;6.93;3.50;;;;;;;14.38;57.55;95948.34;5084793;28;20460;-69
2021/05/13 01:15:35;;;;;;;10.00;3.63;;;;;;;14.34;57.66;95955.06;5080357;28;20418;-69
2021/05/13 01:18:17;;;;;;;4.47;3.53;;;;;;;14.35;57.50;95956.69;5089784;28;21098;-69
2021/05/13 01:20:43;;;;;;;5.90;3.20;;;;;;;14.27;57.74;95953.22;5090772;28;20476;-70
2021/05/13 01:23:11;;;;;;;7.40;3.60;;;;;;;14.26;57.77;95948.19;5089573;28;20906;-69
2021/05/13 01:25:53;;;;;;;4.73;3.63;;;;;;;14.22;58.06;95950.44;5090646;28;20660;-69
2021/05/13 01:28:26;;;;;;;5.17;3.37;;;;;;;13.88;58.90;95952.28;5085319;28;20738;-69
2021/05/13 01:30:53;;;;;;;7.67;4.13;;;;;;;13.78;59.50;95954.50;5089706;28;20448;-69
2021/05/13 01:33:20;;;;;;;7.47;4.27;;;;;;;13.99;58.92;95948.22;5089004;28;20420;-69
2021/05/13 01:35:46;;;;;;;4.27;3.10;;;;;;;14.06;58.76;95948.22;5090085;28;20443;-70
2021/05/13 01:38:20;;;;;;;6.83;3.93;;;;;;;13.92;59.05;95953.50;5089454;28;20767;-71
2021/05/13 01:40:57;;;;;;;4.10;3.70;;;;;;;13.99;58.91;95945.59;5091031;28;20455;-68
2021/05/13 01:43:27;;;;;;;8.30;3.70;;;;;;;14.05;58.71;95941.31;5074854;28;20457;-70
2021/05/13 01:45:53;;;;;;;7.60;3.80;;;;;;;14.08;58.60;95935.66;5077041;28;20440;-68
2021/05/13 01:48:19;;;;;;;10.20;4.00;;;;;;;14.11;58.50;95937.88;5089146;28;20404;-69
2021/05/13 01:50:46;;;;;;;7.13;3.70;;;;;;;14.15;58.29;95940.91;5090785;28;20239;-70
2021/05/13 01:53:12;;;;;;;6.47;4.17;;;;;;;14.10;58.51;95925.72;5090607;28;20197;-69
2021/05/13 01:55:38;;;;;;;12.13;3.63;;;;;;;13.96;58.82;95923.13;5089594;28;20463;-69
2021/05/13 01:58:04;;;;;;;5.63;3.67;;;;;;;13.99;58.89;95932.41;5090048;28;20550;-69
2021/05/13 02:00:30;;;;;;;3.90;3.20;;;;;;;14.02;59.01;95925.94;5090681;28;20186;-68
2021/05/13 02:02:56;;;;;;;7.13;3.70;;;;;;;13.86;59.55;95920.06;5093345;28;20477;-69
2021/05/13 02:05:22;;;;;;;6.80;3.97;;;;;;;14.02;59.36;95920.66;5093020;28;20798;-68
2021/05/13 02:07:48;;;;;;;5.13;3.40;;;;;;;13.89;59.40;95917.03;5091225;28;20663;-69
2021/05/13 02:10:14;;;;;;;6.87;4.40;;;;;;;13.34;60.93;95919.84;5093746;28;20455;-70
2021/05/13 02:12:41;;;;;;;5.90;3.60;;;;;;;13.56;60.30;95915.25;5092982;28;20253;-69
2021/05/13 02:15:11;;;;;;;4.20;3.60;;;;;;;13.69;60.15;95919.69;5084239;28;20793;-69
2021/05/13 02:17:36;;;;;;;5.73;4.27;;;;;;;13.75;60.07;95912.78;5093490;28;20432;-69
2021/05/13 02:20:10;;;;;;;6.37;3.30;;;;;;;13.79;60.09;95911.38;5094693;28;20997;-68
2021/05/13 02:22:36;;;;;;;9.63;3.70;;;;;;;13.76;59.95;95907.34;5094734;28;20182;-69
2021/05/13 02:25:02;;;;;;;7.90;3.60;;;;;;;13.75;59.96;95905.72;5093468;28;20427;-69
2021/05/13 02:27:28;;;;;;;7.80;3.50;;;;;;;13.72;60.19;95906.13;5092757;28;20200;-69
2021/05/13 02:29:53;;;;;;;6.80;3.07;;;;;;;13.67;60.22;95919.88;5089843;28;20444;-69
2021/05/13 02:32:19;;;;;;;9.70;3.80;;;;;;;13.59;60.00;95909.56;5093203;28;20192;-69
2021/05/13 02:34:44;;;;;;;8.73;3.70;;;;;;;13.51;60.01;95901.88;5093239;28;20186;-69
2021/05/13 02:37:10;;;;;;;10.03;3.73;;;;;;;13.41;60.81;95909.34;5093858;28;20321;-69
2021/05/13 02:39:36;;;;;;;4.07;3.67;;;;;;;13.39;61.12;95906.09;5094507;28;20188;-69
2021/05/13 02:42:01;;;;;;;5.00;3.80;;;;;;;13.30;61.71;95902.84;5094670;28;20689;-70
2021/05/13 02:44:27;;;;;;;4.20;3.80;;;;;;;13.34;61.43;95897.00;5092935;28;20185;-68
2021/05/13 02:46:52;;;;;;;5.27;4.07;;;;;;;13.35;61.36;95903.88;5086564;28;20213;-70
2021/05/13 02:49:18;;;;;;;4.73;3.60;;;;;;;13.12;61.63;95895.53;5092151;28;20558;-68
2021/05/13 02:51:43;;;;;;;4.30;3.83;;;;;;;13.10;62.06;95903.63;5094133;28;20254;-69
2021/05/13 02:54:09;;;;;;;9.60;6.10;;;;;;;13.12;62.23;95895.53;5094081;28;20178;-70
2021/05/13 02:56:35;;;;;;;9.97;4.50;;;;;;;13.11;62.38;95896.53;5094997;28;20205;-69
2021/05/13 02:59:00;;;;;;;8.53;3.90;;;;;;;13.13;62.19;95894.53;5094530;28;20205;-69
2021/05/13 03:01:29;;;;;;;5.23;4.10;;;;;;;13.13;62.23;95897.16;5094476;28;20200;-69
2021/05/13 03:03:54;;;;;;;9.37;4.33;;;;;;;12.95;62.84;95890.66;5093504;28;20673;-67
2021/05/13 03:06:21;;;;;;;9.87;4.20;;;;;;;12.85;62.92;95900.75;5092068;28;20436;-68
2021/05/13 03:08:51;;;;;;;4.90;4.40;;;;;;;12.77;63.12;95891.22;5093666;28;20212;-69
2021/05/13 03:11:16;;;;;;;4.20;3.80;;;;;;;12.81;63.13;95887.19;5092070;28;20404;-70
2021/05/13 03:13:43;;;;;;;4.90;4.33;;;;;;;12.75;63.23;95888.00;5092200;28;20426;-69
2021/05/13 03:16:09;;;;;;;6.83;4.40;;;;;;;12.50;63.88;95892.94;5084142;28;20206;-69
2021/05/13 03:18:34;;;;;;;10.13;5.00;;;;;;;12.79;62.96;95891.81;5093663;28;20847;-68
2021/05/13 03:23:44;;;;;;;6.63;4.17;;;;;;;12.84;62.84;95884.16;5080985;28;20464;-69
2021/05/13 03:26:10;;;;;;;7.30;4.70;;;;;;;12.78;63.20;95889.41;5074955;28;20459;-69
2021/05/13 03:28:35;;;;;;;6.10;3.80;;;;;;;12.78;63.34;95884.13;5086572;28;20846;-69
2021/05/13 03:31:01;;;;;;;8.90;4.70;;;;;;;12.76;63.11;95886.97;5093116;28;20209;-69
2021/05/13 03:33:26;;;;;;;6.13;4.33;;;;;;;12.77;62.90;95878.09;5077425;28;20200;-69
2021/05/13 03:35:52;;;;;;;8.80;4.50;;;;;;;12.75;62.83;95886.16;5092921;28;20206;-69
2021/05/13 03:38:18;;;;;;;6.43;4.27;;;;;;;12.73;62.74;95887.38;5076016;28;20188;-69
2021/05/13 03:40:43;;;;;;;6.77;4.27;;;;;;;12.69;62.88;95883.50;5076613;28;20698;-69
2021/05/13 03:43:09;;;;;;;10.50;4.20;;;;;;;12.58;63.25;95884.91;5069726;28;20526;-69
2021/05/13 03:45:35;;;;;;;6.80;5.33;;;;;;;12.57;63.41;95880.66;5072303;28;20186;-69
2021/05/13 03:48:02;;;;;;;9.00;5.70;;;;;;;12.52;63.84;95880.44;5072988;28;20939;-69
2021/05/13 03:50:35;;;;;;;8.77;5.83;;;;;;;12.35;64.10;95875.50;5073035;28;20536;-69
2021/05/13 03:53:02;;;;;;;9.70;5.43;;;;;;;12.23;64.53;95879.69;5072524;28;20474;-69
2021/05/13 03:55:28;;;;;;;7.47;5.30;;;;;;;12.29;64.44;95882.34;5077023;28;20427;-69
2021/05/13 03:57:57;;;;;;;7.07;5.03;;;;;;;12.39;64.15;95879.38;5075791;28;20934;-69
2021/05/13 04:00:29;;;;;;;14.77;5.77;;;;;;;12.43;64.25;95872.72;5064931;28;20170;-69
2021/05/13 04:02:55;;;;;;;7.30;5.77;;;;;;;12.47;63.98;95873.13;5069431;28;20492;-68
2021/05/13 04:05:20;;;;;;;6.40;5.57;;;;;;;12.28;64.51;95872.06;5071860;28;20911;-68
2021/05/13 04:07:48;;;;;;;6.47;5.73;;;;;;;12.36;64.77;95874.50;5087932;28;20201;-69
2021/05/13 04:10:14;;;;;;;6.67;5.90;;;;;;;12.37;64.98;95875.31;5071975;28;20206;-68
2021/05/13 04:12:39;;;;;;;14.67;6.23;;;;;;;12.26;65.22;95877.50;5070929;28;20915;-69
2021/05/13 04:15:10;;;;;;;11.20;7.17;;;;;;;12.08;65.98;95878.03;5071812;28;20190;-69
2021/05/13 04:17:36;;;;;;;14.70;6.83;;;;;;;12.26;65.50;95871.44;5071187;28;20443;-69
2021/05/13 04:20:04;;;;;;;7.00;6.30;;;;;;;12.24;65.93;95863.75;5079561;28;20858;-69
2021/05/13 04:22:29;;;;;;;11.73;6.10;;;;;;;12.36;65.25;95864.00;5072226;28;20567;-69
2021/05/13 04:24:55;;;;;;;8.83;6.00;;;;;;;12.52;64.72;95864.66;5080489;28;20985;-69
2021/05/13 04:27:20;;;;;;;12.17;6.20;;;;;;;12.48;65.11;95868.69;5081146;28;20208;-67
2021/05/13 04:29:46;;;;;;;8.57;6.53;;;;;;;12.71;64.38;95866.56;5072597;28;20684;-68
2021/05/13 04:32:12;;;;;;;8.87;6.00;;;;;;;12.87;63.94;95865.38;5072257;28;20187;-68
2021/05/13 04:34:37;;;;;;;7.93;6.57;;;;;;;12.92;63.52;95864.75;5078691;28;20276;-67
2021/05/13 04:37:03;;;;;;;8.33;6.37;;;;;;;13.06;63.45;95862.94;5073452;28;20202;-67
2021/05/13 04:39:29;;;;;;;8.37;6.10;;;;;;;13.17;63.33;95861.56;5050263;28;20171;-69
2021/05/13 04:41:54;;;;;;;8.97;6.30;;;;;;;13.16;62.62;95866.03;5085651;28;20185;-68
2021/05/13 04:44:20;;;;;;;7.10;5.73;;;;;;;13.29;62.86;95852.06;5092987;28;20177;-68
2021/05/13 04:46:45;;;;;;;8.67;5.90;;;;;;;13.22;62.38;95853.88;5077568;28;20217;-68
2021/05/13 04:49:16;;;;;;;8.30;5.63;;;;;;;13.37;62.34;95853.66;5072381;28;20174;-68
2021/05/13 04:51:44;;;;;;;8.50;5.90;;;;;;;13.40;62.31;95844.59;5069956;28;20236;-69
2021/05/13 04:54:11;;;;;;;11.13;5.80;;;;;;;13.05;62.93;95848.19;5071928;28;20424;-68
2021/05/13 04:56:37;;;;;;;7.50;6.03;;;;;;;12.81;63.45;95857.47;5080247;28;20814;-69
2021/05/13 04:59:03;;;;;;;7.37;6.27;;;;;;;13.03;63.42;95853.66;5070050;28;20459;-68
2021/05/13 05:01:29;;;;;;;7.23;5.67;;;;;;;12.79;64.17;95849.75;5070789;28;20243;-68
2021/05/13 05:03:54;;;;;;;10.03;6.60;;;;;;;13.23;63.28;95854.69;5072322;28;20519;-67
2021/05/13 05:06:20;;;;;;;7.00;6.00;;;;;;;13.47;62.48;95856.72;5071668;28;20284;-68
2021/05/13 05:08:45;;;;;;;6.30;5.60;;;;;;;13.63;61.86;95854.69;5079392;28;20296;-68
2021/05/13 05:11:12;;;;;;;6.73;5.80;;;;;;;13.63;62.07;95852.06;5080423;28;20214;-68
2021/05/13 05:13:37;;;;;;;7.93;5.50;;;;;;;13.70;61.02;95855.47;5070867;28;20240;-68
2021/05/13 05:16:03;;;;;;;14.30;5.33;;;;;;;13.89;61.05;95850.41;5079188;28;20471;-70
2021/05/13 05:18:29;;;;;;;9.60;6.40;;;;;;;13.95;60.55;95857.47;5070725;28;20185;-70
2021/05/13 05:20:55;;;;;;;8.43;4.77;;;;;;;14.06;60.61;95850.75;5070422;28;20181;-67
2021/05/13 05:23:20;;;;;;;10.03;6.30;;;;;;;14.03;60.77;95853.78;5079147;28;20231;-69
2021/05/13 05:25:46;;;;;;;7.37;5.07;;;;;;;14.18;60.87;95849.09;5069153;28;20258;-69
2021/05/13 05:28:12;;;;;;;7.87;7.07;;;;;;;14.37;60.71;95855.31;5070572;28;20200;-70
2021/05/13 05:30:39;;;;;;;8.00;6.00;;;;;;;14.36;60.11;95856.31;5078577;28;20194;-70
2021/05/13 05:33:06;;;;;;;8.13;6.07;;;;;;;14.22;59.73;95852.94;5066923;28;20269;-69
2021/05/13 05:35:33;;;;;;;7.60;5.50;;;;;;;13.90;59.69;95858.09;5070091;28;20523;-69
2021/05/13 05:37:59;;;;;;;9.23;6.00;;;;;;;13.71;60.31;95861.56;5077755;28;20424;-70
2021/05/13 05:40:25;;;;;;;10.47;6.00;;;;;;;13.85;60.26;95854.44;5078259;28;20434;-69
2021/05/13 05:42:51;;;;;;;13.27;6.90;;;;;;;13.86;60.28;95861.34;5091227;28;20178;-68
2021/05/13 05:45:20;;;;;;;7.90;6.33;;;;;;;13.91;60.62;95858.91;5089599;28;20438;-68
2021/05/13 05:47:45;;;;;;;9.13;5.33;;;;;;;14.05;60.04;95851.78;5082934;28;20447;-69
2021/05/13 05:50:11;;;;;;;6.83;6.10;;;;;;;14.41;59.17;95851.25;5090887;28;20845;-68
2021/05/13 05:52:37;;;;;;;6.40;5.33;;;;;;;14.69;58.06;95854.56;5088967;28;20189;-68
2021/05/13 05:55:05;;;;;;;7.73;5.67;;;;;;;14.93;57.53;95854.84;5077137;28;20197;-70
2021/05/13 05:57:30;;;;;;;7.30;5.00;;;;;;;15.29;56.51;95850.72;5090779;28;20461;-70
2021/05/13 05:59:57;;;;;;;6.07;4.93;;;;;;;15.45;55.81;95850.19;5090743;28;20420;-70
2021/05/13 06:02:23;;;;;;;7.90;4.90;;;;;;;15.30;55.98;95847.06;5092123;28;20654;-70
2021/05/13 06:04:51;;;;;;;6.07;5.33;;;;;;;15.24;56.10;95842.66;5093283;28;20451;-69
2021/05/13 06:07:16;;;;;;;7.10;5.57;;;;;;;15.45;55.34;95847.56;5089150;28;20455;-70
2021/05/13 06:09:42;;;;;;;7.27;4.30;;;;;;;15.56;54.88;95840.78;5090818;28;20458;-69
2021/05/13 06:12:08;;;;;;;5.23;4.73;;;;;;;15.40;55.10;95852.66;5087587;28;20204;-69
2021/05/13 06:14:33;;;;;;;5.60;4.40;;;;;;;14.51;56.47;95845.50;5090773;28;20190;-68
2021/05/13 06:16:59;;;;;;;6.40;4.23;;;;;;;14.64;56.82;95843.81;5082658;28;20230;-68
2021/05/13 06:19:24;;;;;;;6.57;4.97;;;;;;;14.94;55.71;95838.00;5091573;28;20174;-69
2021/05/13 06:21:50;;;;;;;10.77;5.13;;;;;;;15.71;54.01;95840.41;5091129;28;20605;-68
2021/05/13 06:24:18;;;;;;;8.10;4.60;;;;;;;15.82;53.38;95831.78;5083286;28;20211;-69
2021/05/13 06:26:43;;;;;;;5.80;4.37;;;;;;;15.88;52.58;95838.03;5089788;28;20539;-69
2021/05/13 06:29:09;;;;;;;5.80;3.90;;;;;;;16.13;52.03;95831.88;5072941;28;20424;-70
2021/05/13 06:31:35;;;;;;;6.37;4.60;;;;;;;15.85;53.53;95830.56;5091270;28;20189;-69
2021/05/13 06:34:01;;;;;;;9.20;4.70;;;;;;;16.47;51.62;95834.91;5090302;28;20182;-70
2021/05/13 06:36:27;;;;;;;9.23;4.80;;;;;;;15.86;53.26;95826.09;5086130;28;20450;-68
2021/05/13 06:38:52;;;;;;;8.10;4.40;;;;;;;16.64;51.80;95826.38;5086972;28;20564;-69
2021/05/13 06:41:18;;;;;;;9.63;4.43;;;;;;;16.71;51.15;95830.53;5088467;28;20418;-69
2021/05/13 06:43:44;;;;;;;7.63;4.57;;;;;;;17.00;50.43;95832.59;5089941;28;20182;-69
2021/05/13 06:46:10;;;;;;;7.00;4.47;;;;;;;17.02;50.18;95835.84;5088578;28;20581;-69
2021/05/13 06:48:35;;;;;;;5.57;4.23;;;;;;;17.44;49.78;95829.69;5079004;28;20187;-69
2021/05/13 06:51:03;;;;;;;5.07;4.07;;;;;;;17.57;48.76;95826.81;5088918;28;20964;-68
2021/05/13 06:53:29;;;;;;;7.37;4.40;;;;;;;17.06;50.31;95836.19;5093912;28;20177;-69
2021/05/13 06:55:54;;;;;;;8.93;4.40;;;;;;;17.54;48.72;95829.91;5092415;28;20451;-69
2021/05/13 06:58:20;;;;;;;5.47;4.10;;;;;;;17.84;48.06;95833.47;5093891;28;20430;-70
2021/05/13 07:00:46;;;;;;;6.93;4.10;;;;;;;17.39;49.08;95842.81;5093890;28;20362;-69
2021/05/13 07:03:12;;;;;;;7.90;4.27;;;;;;;17.33;49.25;95836.56;5088955;28;20424;-68
2021/05/13 07:05:38;;;;;;;6.00;3.70;;;;;;;16.57;51.34;95837.84;5088766;28;20428;-68
2021/05/13 07:08:05;;;;;;;5.33;3.77;;;;;;;16.61;50.65;95832.09;5093920;28;20210;-68
2021/05/13 07:10:31;;;;;;;5.80;3.93;;;;;;;16.94;49.89;95828.22;5092292;28;20607;-69
2021/05/13 07:12:56;;;;;;;5.60;3.87;;;;;;;16.79;51.06;95839.19;5093644;28;20459;-69
2021/05/13 07:15:23;;;;;;;5.50;3.87;;;;;;;17.63;48.15;95831.19;5084464;28;20500;-68
2021/05/13 07:17:48;;;;;;;4.20;3.13;;;;;;;18.20;47.27;95823.66;5093668;28;20213;-72
2021/05/13 07:20:14;;;;;;;8.10;3.50;;;;;;;18.38;46.76;95825.34;5093939;28;20432;-69
2021/05/13 07:22:40;;;;;;;5.03;3.87;;;;;;;18.22;46.41;95817.06;5086002;28;20593;-70
2021/05/13 07:25:06;;;;;;;7.57;3.80;;;;;;;18.43;46.01;95822.78;5086818;28;20185;-69
2021/05/13 07:27:31;;;;;;;6.57;3.77;;;;;;;18.42;46.31;95826.47;5091185;28;20201;-70
2021/05/13 07:29:57;;;;;;;7.53;4.00;;;;;;;19.03;44.98;95826.81;5090136;28;20521;-68
2021/05/13 07:32:23;;;;;;;4.50;3.40;;;;;;;18.75;44.99;95832.94;5093378;28;20173;-69
2021/05/13 07:34:48;;;;;;;4.80;4.30;;;;;;;18.85;45.60;95819.84;5084363;28;20615;-70
2021/05/13 07:37:14;;;;;;;5.17;3.50;;;;;;;19.42;44.11;95818.13;5092604;28;20209;-69
2021/05/13 07:39:40;;;;;;;6.30;4.00;;;;;;;19.19;44.70;95816.44;5092714;28;20174;-69
2021/05/13 07:42:05;;;;;;;7.10;3.80;;;;;;;19.49;44.00;95816.13;5090203;28;20251;-70
2021/05/13 07:44:31;;;;;;;7.43;4.20;;;;;;;19.72;43.44;95814.31;5092600;28;20242;-68
2021/05/13 07:46:58;;;;;;;5.20;3.43;;;;;;;20.11;42.67;95813.50;5091984;28;20210;-69
2021/05/13 07:49:25;;;;;;;4.30;2.90;;;;;;;19.57;42.60;95811.41;5091867;28;20228;-70
2021/05/13 07:51:51;;;;;;;7.00;3.60;;;;;;;19.10;43.39;95815.22;5092778;28;20444;-69
2021/05/13 07:54:17;;;;;;;6.13;2.90;;;;;;;19.59;42.64;95817.31;5088084;28;20489;-70
2021/05/13 07:56:46;;;;;;;2.63;2.40;;;;;;;19.99;41.27;95805.66;5091110;28;20965;-69
2021/05/13 07:59:13;;;;;;;3.33;2.20;;;;;;;19.22;42.71;95813.28;5089711;28;20463;-69
2021/05/13 08:01:38;;;;;;;3.27;2.67;;;;;;;17.72;46.02;95809.66;5086209;28;20504;-69
2021/05/13 08:04:04;;;;;;;3.60;2.53;;;;;;;17.81;45.21;95808.25;5083190;28;20432;-69
2021/05/13 08:06:29;;;;;;;4.03;2.10;;;;;;;18.10;44.31;95803.84;5091093;28;20220;-69
2021/05/13 08:08:55;;;;;;;3.10;1.70;;;;;;;18.23;42.63;95804.63;5092364;28;20177;-69
2021/05/13 08:11:21;;;;;;;2.53;1.40;;;;;;;18.33;40.49;95804.00;5090488;28;20284;-69
2021/05/13 08:13:46;;;;;;;3.43;1.63;;;;;;;18.80;39.60;95814.44;5092502;28;20221;-69
2021/05/13 08:16:12;;;;;;;4.60;2.10;;;;;;;18.93;39.93;95808.03;5092546;28;20297;-69
2021/05/13 08:18:38;;;;;;;4.00;2.00;;;;;;;18.89;39.61;95812.19;5092397;28;20186;-68
2021/05/13 08:21:04;;;;;;;2.77;2.10;;;;;;;18.96;39.86;95814.72;5091782;28;20178;-69
2021/05/13 08:23:29;;;;;;;5.23;2.50;;;;;;;18.96;39.81;95809.41;5092450;28;20182;-69
2021/05/13 08:25:55;;;;;;;3.63;1.57;;;;;;;19.12;39.89;95802.50;5091804;28;20497;-70
2021/05/13 08:28:20;;;;;;;2.27;1.40;;;;;;;19.19;39.99;95798.66;5086879;28;20562;-67
2021/05/13 08:30:46;;;;;;;4.07;1.70;;;;;;;19.59;38.67;95793.38;5092628;28;20213;-67
2021/05/13 08:33:12;;;;;;;3.97;2.10;;;;;;;20.17;38.29;95785.13;5092009;28;20182;-67
2021/05/13 08:35:37;;;;;;;1.93;1.50;;;;;;;20.74;37.03;95783.06;5091966;28;20663;-68
2021/05/13 08:38:03;;;;;;;3.07;1.57;;;;;;;21.21;36.14;95793.06;5089353;28;20184;-68
2021/05/13 08:40:28;;;;;;;2.87;1.53;;;;;;;21.66;34.47;95776.91;5057130;28;20178;-70
2021/05/13 08:42:54;;;;;;;2.87;1.97;;;;;;;21.32;35.58;95780.66;5056983;28;20191;-69
2021/05/13 08:45:20;;;;;;;4.23;1.80;;;;;;;22.28;33.52;95771.81;5056019;28;20183;-70
2021/05/13 08:47:45;;;;;;;2.70;2.00;;;;;;;22.65;32.72;95787.69;5074460;28;20211;-68
2021/05/13 08:50:15;;;;;;;3.90;1.90;;;;;;;22.79;32.71;95779.97;5085482;28;20548;-69
2021/05/13 08:52:41;;;;;;;3.57;1.60;;;;;;;21.56;35.14;95785.59;5089841;28;20189;-68
2021/05/13 08:55:08;;;;;;;2.93;1.30;;;;;;;20.10;38.46;95774.66;5091370;28;20499;-69
2021/05/13 08:57:33;;;;;;;6.23;1.50;;;;;;;19.85;38.91;95785.75;5092357;28;20452;-69
2021/05/13 08:59:59;;;;;;;3.10;2.10;;;;;;;19.27;40.30;95783.38;5090684;28;20428;-67
2021/05/13 09:02:30;;;;;;;3.47;1.73;;;;;;;18.30;42.02;95789.41;5091917;28;20616;-68
2021/05/13 09:04:57;;;;;;;3.00;1.77;;;;;;;18.66;41.41;95789.22;5091639;28;20514;-69
2021/05/13 09:07:27;;;;;;;8.53;2.73;;;;;;;18.79;41.58;95782.84;5091644;28;20436;-69
2021/05/13 09:09:56;;;;;;;2.03;1.40;;;;;;;18.18;42.65;95781.47;5090180;28;20460;-70
2021/05/13 09:12:29;;;;;;;2.97;1.90;;;;;;;18.24;42.24;95775.22;5074871;28;20942;-70
2021/05/13 09:15:21;;;;;;;3.20;1.60;;;;;;;18.82;41.11;95769.88;5083042;28;20459;-69
2021/05/13 09:17:50;;;;;;;2.20;1.70;;;;;;;18.87;41.21;95769.97;5090592;28;20806;-70
2021/05/13 09:20:23;;;;;;;3.30;1.67;;;;;;;19.11;40.11;95767.19;5073630;28;20806;-68
2021/05/13 09:22:49;;;;;;;2.13;1.60;;;;;;;19.07;39.25;95763.41;5091608;28;20507;-69
2021/05/13 09:25:14;;;;;;;3.33;1.60;;;;;;;19.59;38.63;95754.34;5091062;28;20527;-68
2021/05/13 09:27:45;;;;;;;2.33;1.63;;;;;;;19.69;39.61;95753.66;5087956;28;20210;-69
2021/05/13 09:30:15;;;;;;;2.73;1.53;;;;;;;19.88;38.69;95748.09;5087435;28;20201;-70
2021/05/13 09:32:43;;;;;;;4.77;1.40;;;;;;;20.00;37.65;95751.44;5077023;28;20463;-71
2021/05/13 09:35:11;;;;;;;2.90;1.80;;;;;;;19.92;38.41;95743.88;5090491;28;20427;-69
2021/05/13 09:38:04;;;;;;;3.20;1.70;;;;;;;20.24;36.86;95743.97;5095983;28;20782;-69
2021/05/13 09:40:41;;;;;;;2.07;1.30;;;;;;;20.41;37.17;95753.75;5092821;28;20447;-68
2021/05/13 09:43:21;;;;;;;4.30;1.50;;;;;;;20.39;36.63;95748.69;5083073;28;20460;-70
2021/05/13 09:45:58;;;;;;;5.23;1.50;;;;;;;20.34;37.33;95750.47;5085627;28;20427;-68
2021/05/13 09:48:43;;;;;;;5.40;1.83;;;;;;;19.79;39.25;95745.03;5075099;28;20412;-69
2021/05/13 09:51:34;;;;;;;13.50;1.53;;;;;;;19.65;38.50;95753.38;5088583;28;20795;-69
2021/05/13 09:54:16;;;;;;;3.73;1.80;;;;;;;20.06;38.13;95753.09;5090990;28;20419;-68
2021/05/13 09:56:42;;;;;;;3.00;1.60;;;;;;;19.59;37.68;95753.53;5089647;28;20475;-69
2021/05/13 09:59:30;;;;;;;4.17;1.70;;;;;;;19.69;37.58;95752.88;5091220;28;20420;-68
2021/05/13 10:02:00;;;;;;;3.60;1.60;;;;;;;19.70;37.75;95749.97;5091280;28;20423;-68
2021/05/13 10:04:26;;;;;;;4.23;2.17;;;;;;;19.95;37.35;95752.19;5090816;28;21012;-69
2021/05/13 10:06:52;;;;;;;5.40;1.77;;;;;;;19.36;38.76;95750.03;5091045;28;21005;-69
2021/05/13 10:09:19;;;;;;;2.33;1.30;;;;;;;19.12;38.48;95755.53;5089676;28;20755;-68
2021/05/13 10:11:55;;;;;;;4.13;1.60;;;;;;;19.74;37.75;95752.94;5088698;28;20930;-68
2021/05/13 10:14:22;;;;;;;6.00;1.90;;;;;;;19.15;38.63;95755.03;5074881;28;20434;-69
2021/05/13 10:16:49;;;;;;;6.00;1.90;;;;;;;19.05;38.68;95760.19;5081759;28;20456;-68
2021/05/13 10:19:18;;;;;;;4.87;1.80;;;;;;;18.44;39.46;95766.03;5091163;28;20447;-70
2021/05/13 10:21:44;;;;;;;5.23;2.13;;;;;;;19.13;38.55;95762.47;5081742;28;20782;-68
2021/05/13 10:24:12;;;;;;;3.17;1.80;;;;;;;19.56;37.67;95748.72;5092757;28;20435;-69
2021/05/13 10:26:41;;;;;;;5.03;1.80;;;;;;;18.70;39.02;95759.34;5093605;28;20561;-70
2021/05/13 10:29:18;;;;;;;2.07;1.30;;;;;;;19.78;37.37;95756.72;5079928;28;20439;-69
2021/05/13 10:31:44;;;;;;;2.23;1.50;;;;;;;20.64;35.40;95741.19;5094837;28;20424;-69
2021/05/13 10:34:10;;;;;;;3.83;1.53;;;;;;;20.10;36.35;95742.75;5094549;28;20925;-69
2021/05/13 10:36:35;;;;;;;6.93;2.30;;;;;;;19.49;37.31;95746.22;5092975;28;20209;-69
2021/05/13 10:39:08;;;;;;;2.60;1.47;;;;;;;18.27;40.68;95758.84;5084947;28;20190;-69
2021/05/13 10:41:36;;;;;;;2.40;1.10;;;;;;;17.67;42.40;95746.78;5092995;28;20257;-69
2021/05/13 10:44:11;;;;;;;2.70;1.20;;;;;;;17.88;42.59;95757.78;5092358;28;20476;-69
2021/05/13 10:46:38;;;;;;;2.80;1.27;;;;;;;18.21;42.66;95753.69;5093677;28;20439;-69
2021/05/13 10:49:44;;;;;;;6.43;1.27;;;;;;;18.46;42.16;95761.31;5094358;28;20867;-68
2021/05/13 10:52:35;;;;;;;5.93;1.40;;;;;;;18.22;42.47;95748.16;5091949;28;20559;-69
2021/05/13 10:55:04;;;;;;;4.93;1.60;;;;;;;18.14;42.65;95751.19;5066040;28;20433;-69
2021/05/13 10:57:46;;;;;;;1.80;1.23;;;;;;;17.94;43.00;95751.56;5074343;28;20978;-69
2021/05/13 11:00:17;;;;;;;2.00;1.10;;;;;;;18.02;42.25;95747.78;5091381;28;20869;-69
2021/05/13 11:02:49;;;;;;;3.60;1.30;;;;;;;18.09;42.81;95745.78;5091310;28;20464;-69
2021/05/13 11:05:27;;;;;;;3.63;1.23;;;;;;;17.88;42.66;95741.88;5090049;28;20432;-69
2021/05/13 11:07:53;;;;;;;3.10;1.40;;;;;;;18.21;42.68;95749.19;5090775;28;20550;-68
2021/05/13 11:10:19;;;;;;;2.70;1.30;;;;;;;18.77;40.26;95748.59;5089114;28;20455;-69
2021/05/13 11:12:44;;;;;;;2.90;1.30;;;;;;;19.28;39.62;95745.16;5074503;28;20946;-68
2021/05/13 11:15:15;;;;;;;3.53;1.30;;;;;;;19.28;38.76;95743.28;5090791;28;20201;-69
2021/05/13 11:17:55;;;;;;;8.93;1.33;;;;;;;18.65;40.77;95747.84;5091175;28;20205;-69
2021/05/13 11:20:24;;;;;;;5.03;1.23;;;;;;;18.58;40.23;95745.34;5090685;28;20846;-70
2021/05/13 11:23:10;;;;;;;3.23;1.30;;;;;;;18.79;38.60;95738.50;5090886;28;20420;-68
2021/05/13 11:25:41;;;;;;;1.87;1.07;;;;;;;19.17;38.64;95741.53;5089883;28;20427;-70
2021/05/13 11:28:29;;;;;;;5.37;1.10;;;;;;;18.34;39.75;95749.94;5087863;28;20923;-68
2021/05/13 11:31:05;;;;;;;1.90;1.10;;;;;;;18.39;39.73;95742.09;5085229;28;20467;-68
2021/05/13 11:33:51;;;;;;;3.67;1.40;;;;;;;18.12;41.09;95740.00;5086816;28;20414;-70
2021/05/13 11:36:19;;;;;;;1.70;1.10;;;;;;;18.55;40.85;95741.31;5091889;28;20478;-68
2021/05/13 11:38:49;;;;;;;1.87;1.03;;;;;;;18.18;41.25;95739.03;5093261;28;20989;-67
2021/05/13 11:41:16;;;;;;;2.03;0.73;;;;;;;17.57;41.02;95736.75;5090330;28;20786;-68